Time;durP1;ratioP1;P1;durP2;ratioP2;P2;SDS_P1;SDS_P2;PMS_P1;PMS_P2;Temp;Humidity;BMP_temperature;BMP_pressure;BME280_temperature;BME280_humidity;BME280_pressure;Samples;Min_cycle;Max_cycle;Signal;HPM_P1;HPM_P2
2023/10/31 00:01:25;;;;;;;23.85;14.55;;;;;;;11.19;97.00;99165.95;1718087;83;27332;-50
2023/10/31 00:03:51;;;;;;;24.30;13.78;;;;;;;11.17;96.86;99146.57;1718158;83;25412;-54
2023/10/31 00:06:17;;;;;;;23.20;13.70;;;;;;;11.14;96.82;99154.58;1718172;82;25558;-53
2023/10/31 00:08:44;;;;;;;24.95;13.20;;;;;;;11.13;96.89;99157.05;1722301;82;25631;-54
2023/10/31 00:11:12;;;;;;;23.22;13.93;;;;;;;11.12;97.14;99141.39;1698707;82;25479;-50
2023/10/31 00:13:39;;;;;;;21.10;13.05;;;;;;;11.12;96.86;99135.98;1730754;82;27333;-48
2023/10/31 00:16:07;;;;;;;26.05;13.50;;;;;;;11.10;96.75;99143.66;1730693;82;25569;-50
2023/10/31 00:18:34;;;;;;;23.47;14.65;;;;;;;11.10;97.02;99138.78;1748722;81;25640;-51
2023/10/31 00:21:00;;;;;;;24.40;13.58;;;;;;;11.10;96.94;99125.25;1759661;81;25674;-49
2023/10/31 00:23:27;;;;;;;21.55;13.88;;;;;;;11.07;96.58;99119.97;1759692;81;25162;-52
2023/10/31 00:25:53;;;;;;;37.05;23.83;;;;;;;11.07;96.07;99122.68;1759676;81;27279;-50
2023/10/31 00:28:20;;;;;;;27.40;16.95;;;;;;;11.05;96.29;99118.18;1759600;81;25915;-51
2023/10/31 00:30:46;;;;;;;86.25;51.98;;;;;;;11.04;96.10;99107.13;1759649;81;25581;-50
2023/10/31 00:33:13;;;;;;;60.38;36.33;;;;;;;11.05;96.55;99105.19;1759647;81;25569;-50
2023/10/31 00:35:39;;;;;;;30.25;19.35;;;;;;;11.03;96.21;99098.77;1759704;81;25423;-50
2023/10/31 00:38:06;;;;;;;21.42;12.63;;;;;;;11.02;96.67;99102.62;1759656;81;27352;-51
2023/10/31 00:40:32;;;;;;;21.60;12.73;;;;;;;11.00;96.67;99094.84;1759584;81;25627;-50
2023/10/31 00:43:00;;;;;;;19.73;11.83;;;;;;;11.00;96.80;99086.72;1759412;81;25678;-50
2023/10/31 00:45:26;;;;;;;17.90;11.45;;;;;;;10.99;96.74;99081.65;1758586;81;27734;-50
2023/10/31 00:47:52;;;;;;;21.73;12.82;;;;;;;10.97;96.93;99082.56;1758497;81;25856;-50
2023/10/31 00:50:19;;;;;;;19.15;10.88;;;;;;;10.95;97.06;99088.31;1758728;81;27291;-50
2023/10/31 00:52:45;;;;;;;20.50;11.70;;;;;;;10.94;97.02;99087.30;1758797;81;25724;-50
2023/10/31 00:55:13;;;;;;;19.75;11.55;;;;;;;10.93;97.38;99091.92;1758947;81;25787;-50
2023/10/31 00:57:39;;;;;;;23.47;12.75;;;;;;;10.91;97.54;99080.63;1758999;81;26236;-50
2023/10/31 01:00:09;;;;;;;17.37;11.63;;;;;;;10.90;97.67;99069.61;1759581;81;25766;-51
2023/10/31 01:02:36;;;;;;;19.98;10.93;;;;;;;10.89;97.73;99068.02;1755809;81;27318;-50
2023/10/31 01:05:04;;;;;;;24.40;11.55;;;;;;;10.88;97.60;99064.30;1759712;81;25545;-54
2023/10/31 01:07:30;;;;;;;18.48;11.30;;;;;;;10.87;97.97;99054.05;1724593;81;25423;-51
2023/10/31 01:09:56;;;;;;;19.80;11.00;;;;;;;10.88;98.23;99049.42;1723949;81;25580;-53
2023/10/31 01:12:22;;;;;;;17.17;11.00;;;;;;;10.87;98.33;99044.58;1759818;81;25633;-51
2023/10/31 01:14:49;;;;;;;19.95;10.85;;;;;;;10.90;98.43;99045.83;1759812;81;27326;-50
2023/10/31 01:17:15;;;;;;;15.35;11.20;;;;;;;10.91;98.76;99046.04;1759348;81;33489;-51
2023/10/31 01:19:41;;;;;;;16.35;10.65;;;;;;;10.91;98.55;99038.70;1757112;81;25444;-51
2023/10/31 01:22:07;;;;;;;22.85;10.70;;;;;;;10.94;98.44;99034.54;1730912;82;26192;-51
2023/10/31 01:24:33;;;;;;;20.10;10.70;;;;;;;10.94;98.65;99024.50;1733631;82;25781;-51
2023/10/31 01:27:00;;;;;;;26.15;12.25;;;;;;;10.96;98.76;99017.39;1733099;82;27288;-53
2023/10/31 01:29:26;;;;;;;17.00;10.20;;;;;;;10.95;98.23;99010.42;1733852;82;25642;-51
2023/10/31 01:31:52;;;;;;;17.62;11.05;;;;;;;10.96;98.36;98995.75;1734065;82;25587;-50
2023/10/31 01:34:19;;;;;;;16.65;10.55;;;;;;;10.97;98.57;98985.16;1733991;82;25634;-50
2023/10/31 01:36:45;;;;;;;15.40;10.25;;;;;;;10.96;98.55;98992.47;1734022;82;25374;-50
2023/10/31 01:39:12;;;;;;;16.02;10.03;;;;;;;10.97;98.53;98995.41;1733937;82;27347;-49
2023/10/31 01:41:43;;;;;;;13.85;10.05;;;;;;;10.97;98.56;98989.22;1733901;82;25667;-49
2023/10/31 01:44:10;;;;;;;17.67;10.65;;;;;;;10.97;98.76;98991.35;1733967;82;25609;-50
2023/10/31 01:46:37;;;;;;;16.32;9.83;;;;;;;10.97;99.49;98992.70;1733921;82;25719;-50
2023/10/31 01:49:04;;;;;;;20.00;11.03;;;;;;;10.99;99.86;98988.30;1733932;82;25574;-49
2023/10/31 01:51:31;;;;;;;15.78;9.88;;;;;;;11.00;99.66;98998.01;1733940;82;27353;-50
2023/10/31 01:53:59;;;;;;;17.77;9.65;;;;;;;11.01;100.00;98992.80;1756976;81;25626;-49
2023/10/31 01:56:27;;;;;;;18.87;10.13;;;;;;;11.02;100.00;98988.41;1757087;81;25567;-50
2023/10/31 01:58:54;;;;;;;20.65;9.95;;;;;;;11.02;100.00;98984.92;1730775;82;26205;-50
2023/10/31 02:01:21;;;;;;;17.57;9.73;;;;;;;11.05;100.00;98980.72;1726279;81;25674;-49
2023/10/31 02:03:49;;;;;;;19.77;9.50;;;;;;;11.09;100.00;98969.45;1757022;81;27351;-52
2023/10/31 02:06:16;;;;;;;20.32;9.58;;;;;;;11.10;100.00;98946.11;1698829;82;25783;-52
2023/10/31 02:08:42;;;;;;;16.60;9.68;;;;;;;11.15;100.00;98950.47;1757073;81;25626;-50
2023/10/31 02:11:09;;;;;;;14.73;9.45;;;;;;;11.16;100.00;98917.65;1756958;81;27866;-51
2023/10/31 02:13:37;;;;;;;15.28;9.33;;;;;;;11.20;100.00;98891.48;1730902;82;25602;-52
2023/10/31 02:16:05;;;;;;;18.75;10.32;;;;;;;11.24;100.00;98883.45;1757035;81;27380;-53
2023/10/31 02:18:34;;;;;;;12.73;8.70;;;;;;;11.26;100.00;98881.17;1756896;81;25630;-51
2023/10/31 02:21:00;;;;;;;16.30;9.30;;;;;;;11.30;100.00;98883.97;1757085;81;25582;-52
2023/10/31 02:23:26;;;;;;;16.25;9.73;;;;;;;11.31;100.00;98881.50;1730875;82;25854;-51
2023/10/31 02:25:52;;;;;;;16.05;8.73;;;;;;;11.32;100.00;98883.05;1757194;81;25657;-50
2023/10/31 02:28:19;;;;;;;22.10;9.03;;;;;;;11.33;100.00;98883.28;1757016;81;27356;-50
2023/10/31 02:30:45;;;;;;;14.45;8.85;;;;;;;11.36;100.00;98890.71;1730727;82;25429;-50
2023/10/31 02:33:12;;;;;;;13.75;8.80;;;;;;;11.34;100.00;98880.23;1756988;81;25617;-50
2023/10/31 02:35:38;;;;;;;15.85;9.45;;;;;;;11.36;100.00;98880.66;1757013;81;25729;-50
2023/10/31 02:38:05;;;;;;;14.87;8.55;;;;;;;11.38;100.00;98877.61;1730811;82;25465;-50
2023/10/31 02:40:31;;;;;;;16.57;8.88;;;;;;;11.39;100.00;98872.40;1757000;81;27358;-49
2023/10/31 02:42:57;;;;;;;12.23;8.18;;;;;;;11.40;100.00;98865.86;1756912;81;25497;-50
2023/10/31 02:45:23;;;;;;;16.95;8.63;;;;;;;11.42;100.00;98858.75;1730776;82;25398;-49
2023/10/31 02:47:49;;;;;;;13.83;8.23;;;;;;;11.45;100.00;98857.48;1756967;81;25635;-49
2023/10/31 02:50:16;;;;;;;15.13;8.40;;;;;;;11.46;100.00;98855.55;1756986;81;25414;-50
2023/10/31 02:52:42;;;;;;;13.72;8.03;;;;;;;11.48;100.00;98847.88;1730799;82;28038;-50
2023/10/31 02:55:08;;;;;;;14.75;8.30;;;;;;;11.50;100.00;98845.03;1756956;81;25622;-49
2023/10/31 02:57:35;;;;;;;17.35;8.53;;;;;;;11.53;100.00;98849.75;1756992;81;25448;-50
2023/10/31 03:00:01;;;;;;;15.68;8.20;;;;;;;11.57;100.00;98834.94;1730757;82;25635;-49
2023/10/31 03:02:28;;;;;;;18.15;8.60;;;;;;;11.61;100.00;98832.31;1757070;81;25397;-49
2023/10/31 03:04:55;;;;;;;15.78;8.70;;;;;;;11.63;100.00;98821.91;1757036;81;27307;-49
2023/10/31 03:07:21;;;;;;;15.45;8.13;;;;;;;11.65;100.00;98820.43;1725803;81;25589;-50
2023/10/31 03:09:47;;;;;;;14.43;8.28;;;;;;;11.67;100.00;98815.44;1757002;81;25614;-51
2023/10/31 03:12:13;;;;;;;13.58;8.35;;;;;;;11.71;100.00;98807.39;1756943;81;25617;-50
2023/10/31 03:14:39;;;;;;;15.85;8.05;;;;;;;11.74;100.00;98806.12;1756979;81;25468;-49
2023/10/31 03:17:06;;;;;;;17.02;8.90;;;;;;;11.77;100.00;98797.87;1756990;81;27325;-50
2023/10/31 03:19:32;;;;;;;14.80;8.15;;;;;;;11.77;100.00;98791.09;1756771;81;25402;-49
2023/10/31 03:21:58;;;;;;;19.50;7.87;;;;;;;11.80;100.00;98790.95;1757000;81;25421;-49
2023/10/31 03:24:24;;;;;;;14.05;7.92;;;;;;;11.83;100.00;98795.08;1730740;82;25629;-49
2023/10/31 03:26:50;;;;;;;16.73;8.25;;;;;;;11.84;99.88;98801.31;1726170;81;25575;-50
2023/10/31 03:29:16;;;;;;;14.45;7.95;;;;;;;11.85;100.00;98791.48;1756966;81;27299;-51
2023/10/31 03:31:43;;;;;;;11.80;8.30;;;;;;;11.86;100.00;98786.25;1731076;81;25592;-50
2023/10/31 03:34:10;;;;;;;11.20;7.92;;;;;;;11.91;100.00;98781.17;1756996;81;25429;-50
2023/10/31 03:36:37;;;;;;;17.12;7.92;;;;;;;11.93;100.00;98779.66;1730696;82;25631;-50
2023/10/31 03:39:04;;;;;;;19.35;8.78;;;;;;;11.96;100.00;98776.24;1726167;81;25515;-50
2023/10/31 03:41:30;;;;;;;15.58;8.05;;;;;;;11.99;99.87;98785.61;1756667;81;27345;-51
2023/10/31 03:43:56;;;;;;;13.50;7.95;;;;;;;12.02;99.83;98772.70;1730651;82;25394;-50
2023/10/31 03:46:22;;;;;;;10.50;7.33;;;;;;;12.05;99.59;98765.77;1756954;81;25655;-50
2023/10/31 03:48:48;;;;;;;10.48;7.33;;;;;;;12.08;99.55;98761.00;1756924;81;25618;-50
2023/10/31 03:51:14;;;;;;;12.93;7.20;;;;;;;12.10;99.31;98756.00;1730751;82;25618;-50
2023/10/31 03:53:41;;;;;;;16.95;7.92;;;;;;;12.11;99.18;98750.81;1757019;81;28008;-50
2023/10/31 03:56:07;;;;;;;12.35;6.90;;;;;;;12.14;99.17;98751.46;1756861;81;25370;-50
2023/10/31 03:58:34;;;;;;;15.80;6.65;;;;;;;12.17;98.97;98724.97;1730744;82;25418;-50
2023/10/31 04:01:00;;;;;;;12.28;6.53;;;;;;;12.19;98.87;98724.06;1756958;81;25964;-50
2023/10/31 04:03:26;;;;;;;8.80;6.53;;;;;;;12.20;98.89;98705.87;1757025;81;25406;-50
2023/10/31 04:05:53;;;;;;;11.33;7.12;;;;;;;12.24;98.78;98706.71;1730766;82;27296;-50
2023/10/31 04:08:20;;;;;;;9.70;7.25;;;;;;;12.26;98.49;98704.42;1756861;81;27092;-50
2023/10/31 04:10:46;;;;;;;14.07;7.30;;;;;;;12.28;98.37;98705.64;1756973;81;25567;-50
2023/10/31 04:13:12;;;;;;;14.00;6.20;;;;;;;12.30;98.28;98704.70;1730680;82;25759;-50
2023/10/31 04:15:39;;;;;;;13.48;6.28;;;;;;;12.35;98.17;98694.73;1756966;81;25637;-49
2023/10/31 04:18:05;;;;;;;9.53;6.90;;;;;;;12.38;97.97;98689.92;1756962;81;27339;-50
2023/10/31 04:20:32;;;;;;;16.25;6.75;;;;;;;12.39;97.78;98699.05;1767386;81;27136;-50
2023/10/31 04:22:58;;;;;;;10.68;6.30;;;;;;;12.42;97.67;98688.84;1737118;82;25641;-50
2023/10/31 04:25:26;;;;;;;11.97;6.47;;;;;;;12.44;97.53;98685.78;1765365;80;25608;-50
2023/10/31 04:27:53;;;;;;;12.45;6.92;;;;;;;12.46;97.32;98696.49;1767686;81;25454;-50
2023/10/31 04:30:20;;;;;;;13.13;6.60;;;;;;;12.47;97.15;98695.33;1737147;82;27320;-49
2023/10/31 04:32:46;;;;;;;10.20;6.60;;;;;;;12.50;96.96;98682.99;1791847;80;25432;-50
2023/10/31 04:35:13;;;;;;;15.10;5.67;;;;;;;12.52;96.78;98670.62;1767653;81;25480;-49
2023/10/31 04:37:39;;;;;;;10.98;5.67;;;;;;;12.55;96.64;98665.62;1791911;80;25610;-50
2023/10/31 04:40:08;;;;;;;9.20;6.00;;;;;;;12.58;96.49;98662.19;1767649;81;25425;-50
2023/10/31 04:42:34;;;;;;;12.90;6.50;;;;;;;12.60;96.30;98662.05;1785026;80;27281;-49
2023/10/31 04:45:00;;;;;;;10.80;4.92;;;;;;;12.63;96.17;98666.76;1767561;81;25406;-50
2023/10/31 04:47:26;;;;;;;11.38;6.22;;;;;;;12.66;96.00;98662.52;1791895;80;25370;-52
2023/10/31 04:49:52;;;;;;;11.15;5.90;;;;;;;12.69;95.71;98672.08;1767530;81;27879;-50
2023/10/31 04:52:19;;;;;;;14.95;7.67;;;;;;;12.74;95.67;98654.72;1791936;80;25598;-50
2023/10/31 04:54:46;;;;;;;8.68;5.78;;;;;;;12.79;95.43;98653.05;1767663;81;27241;-49
2023/10/31 04:57:13;;;;;;;11.15;5.87;;;;;;;12.84;95.24;98643.25;1704594;82;25640;-53
2023/10/31 04:59:39;;;;;;;10.93;5.95;;;;;;;12.87;94.93;98642.53;1791903;80;25437;-51
2023/10/31 05:02:05;;;;;;;9.88;5.70;;;;;;;12.90;94.61;98639.64;1767612;81;25593;-50
2023/10/31 05:04:31;;;;;;;9.13;4.92;;;;;;;12.95;94.27;98616.85;1737200;82;25607;-50
2023/10/31 05:06:57;;;;;;;11.50;5.45;;;;;;;12.99;94.13;98617.67;1791909;80;27358;-50
2023/10/31 05:09:23;;;;;;;10.53;5.25;;;;;;;13.01;93.74;98611.33;1767543;81;25819;-54
2023/10/31 05:11:50;;;;;;;9.40;5.47;;;;;;;13.05;93.49;98612.92;1737237;82;25473;-52
2023/10/31 05:14:16;;;;;;;8.53;5.22;;;;;;;13.08;93.38;98616.27;1791947;80;25795;-53
2023/10/31 05:16:44;;;;;;;10.30;5.40;;;;;;;13.12;92.96;98600.03;1767823;81;25571;-49
2023/10/31 05:19:11;;;;;;;8.73;5.37;;;;;;;13.17;92.74;98607.08;1708234;82;27250;-50
2023/10/31 05:21:37;;;;;;;10.72;5.28;;;;;;;13.19;92.00;98586.55;1751377;81;25576;-51
2023/10/31 05:24:06;;;;;;;7.85;4.53;;;;;;;13.23;91.55;98577.11;1781026;80;25561;-54
2023/10/31 05:26:32;;;;;;;7.58;4.78;;;;;;;13.26;91.88;98571.73;1781172;80;25730;-50
2023/10/31 05:28:59;;;;;;;12.50;7.22;;;;;;;13.30;91.35;98570.41;1781028;80;25536;-53
2023/10/31 05:31:26;;;;;;;11.20;5.75;;;;;;;13.36;91.13;98562.74;1781011;80;27327;-54
2023/10/31 05:33:53;;;;;;;9.40;4.83;;;;;;;13.39;91.05;98562.78;1780947;80;25617;-51
2023/10/31 05:36:23;;;;;;;9.43;4.55;;;;;;;13.42;90.50;98572.91;1781035;80;25637;-50
2023/10/31 05:38:50;;;;;;;8.50;4.97;;;;;;;13.46;90.19;98575.67;1780161;80;25684;-50
2023/10/31 05:41:16;;;;;;;7.80;5.05;;;;;;;13.52;89.78;98572.84;1781026;80;25538;-50
2023/10/31 05:43:42;;;;;;;11.60;5.40;;;;;;;13.56;89.43;98567.45;1752925;80;27327;-52
2023/10/31 05:46:13;;;;;;;8.28;4.53;;;;;;;13.58;88.83;98568.63;1780957;80;25435;-50
2023/10/31 05:48:46;;;;;;;10.85;6.10;;;;;;;13.61;88.75;98561.09;1781128;80;25635;-50
2023/10/31 05:51:15;;;;;;;13.20;5.20;;;;;;;13.64;88.56;98577.24;1781031;80;25626;-51
2023/10/31 05:53:45;;;;;;;11.33;5.30;;;;;;;13.68;88.16;98559.63;1781214;80;25383;-51
2023/10/31 05:56:16;;;;;;;10.30;4.85;;;;;;;13.72;88.03;98580.81;1781036;80;27381;-50
2023/10/31 05:58:43;;;;;;;7.72;4.62;;;;;;;13.75;87.50;98577.35;1780963;80;25634;-51
2023/10/31 06:01:09;;;;;;;10.32;4.62;;;;;;;13.79;87.36;98565.94;1781047;80;25635;-50
2023/10/31 06:03:37;;;;;;;11.05;4.75;;;;;;;13.82;86.84;98572.79;1780984;80;25663;-51
2023/10/31 06:06:06;;;;;;;12.47;4.65;;;;;;;13.88;85.20;98568.37;1781065;80;25510;-50
2023/10/31 06:08:32;;;;;;;19.37;4.90;;;;;;;13.94;85.68;98566.87;1781151;80;27934;-49
2023/10/31 06:11:03;;;;;;;6.78;4.03;;;;;;;13.98;85.50;98563.04;1780929;80;25646;-51
2023/10/31 06:13:31;;;;;;;8.03;4.37;;;;;;;14.04;85.06;98592.60;1781123;80;25627;-52
2023/10/31 06:16:00;;;;;;;12.68;4.75;;;;;;;14.07;85.28;98568.16;1747261;80;25673;-54
2023/10/31 06:18:28;;;;;;;8.25;4.10;;;;;;;14.08;85.58;98550.71;1781133;80;25446;-51
2023/10/31 06:20:54;;;;;;;8.85;3.92;;;;;;;14.04;85.69;98572.21;1761694;80;28013;-51
2023/10/31 06:23:20;;;;;;;10.35;4.33;;;;;;;13.97;86.05;98582.44;1729202;83;25608;-51
2023/10/31 06:25:47;;;;;;;7.03;4.30;;;;;;;13.90;86.24;98576.34;1786302;80;25558;-51
2023/10/31 06:28:14;;;;;;;11.88;4.50;;;;;;;13.87;86.30;98561.37;1697109;83;25642;-50
2023/10/31 06:30:41;;;;;;;6.37;4.20;;;;;;;13.85;86.31;98554.17;1759473;81;25576;-49
2023/10/31 06:33:08;;;;;;;11.70;4.67;;;;;;;13.80;86.47;98553.92;1786209;80;27384;-50
2023/10/31 06:35:35;;;;;;;8.90;4.90;;;;;;;13.79;86.96;98568.66;1752340;80;26003;-51
2023/10/31 06:38:02;;;;;;;9.70;4.55;;;;;;;13.76;87.23;98555.25;1759407;81;25674;-49
2023/10/31 06:40:28;;;;;;;9.08;4.50;;;;;;;13.74;87.54;98567.63;1729208;82;25680;-52
2023/10/31 06:42:55;;;;;;;7.58;4.62;;;;;;;13.70;87.66;98558.08;1786312;80;25451;-51
2023/10/31 06:45:21;;;;;;;11.85;4.95;;;;;;;13.66;87.68;98566.78;1759434;81;27313;-50
2023/10/31 06:47:47;;;;;;;16.75;5.33;;;;;;;13.68;87.44;98577.28;1729193;83;25568;-50
2023/10/31 06:50:13;;;;;;;9.38;5.08;;;;;;;13.69;87.59;98563.89;1759359;81;25376;-53
2023/10/31 06:52:40;;;;;;;9.55;4.75;;;;;;;13.68;87.73;98550.89;1729181;83;27845;-49
2023/10/31 06:55:08;;;;;;;10.58;4.15;;;;;;;13.68;87.60;98559.63;1757880;80;25375;-48
2023/10/31 06:57:34;;;;;;;8.47;4.93;;;;;;;13.70;87.65;98582.53;1759673;81;27589;-50
2023/10/31 07:00:01;;;;;;;8.65;4.90;;;;;;;13.71;87.68;98560.24;1729156;83;25613;-50
2023/10/31 07:02:27;;;;;;;9.40;4.58;;;;;;;13.72;87.54;98568.58;1786238;80;25530;-49
2023/10/31 07:04:53;;;;;;;7.15;4.35;;;;;;;13.73;87.52;98579.08;1759370;81;25965;-52
2023/10/31 07:07:20;;;;;;;9.48;4.95;;;;;;;13.75;87.31;98569.20;1786366;80;25391;-50
2023/10/31 07:09:46;;;;;;;12.28;4.70;;;;;;;13.76;87.58;98556.61;1759396;81;29453;-49
2023/10/31 07:12:13;;;;;;;8.15;4.35;;;;;;;13.77;87.71;98568.25;1729056;83;25615;-50
2023/10/31 07:14:39;;;;;;;8.60;4.12;;;;;;;13.77;87.45;98548.67;1759446;81;25634;-50
2023/10/31 07:17:05;;;;;;;7.80;4.12;;;;;;;13.78;87.29;98544.78;1729196;83;26018;-53
2023/10/31 07:19:31;;;;;;;8.48;4.67;;;;;;;13.80;87.20;98547.13;1787208;80;25554;-51
2023/10/31 07:21:57;;;;;;;6.95;3.85;;;;;;;13.81;87.04;98550.84;1767874;81;29523;-49
2023/10/31 07:24:23;;;;;;;7.80;4.50;;;;;;;13.84;86.57;98534.34;1762195;80;33255;-49
2023/10/31 07:26:49;;;;;;;9.23;4.22;;;;;;;13.87;86.68;98534.97;1790547;80;25922;-50
2023/10/31 07:29:16;;;;;;;7.80;4.55;;;;;;;13.92;86.29;98546.86;1791277;80;25598;-53
2023/10/31 07:31:42;;;;;;;7.70;4.33;;;;;;;13.96;86.48;98521.06;1791325;80;25876;-50
2023/10/31 07:34:10;;;;;;;10.65;5.37;;;;;;;13.98;86.32;98522.27;1791380;80;27901;-52
2023/10/31 07:36:36;;;;;;;8.98;4.33;;;;;;;14.00;85.98;98517.23;1791225;80;25760;-53
2023/10/31 07:39:04;;;;;;;11.00;4.47;;;;;;;14.06;85.69;98504.66;1791293;80;25621;-51
2023/10/31 07:41:30;;;;;;;8.88;4.75;;;;;;;14.10;85.74;98525.88;1791363;80;25641;-48
2023/10/31 07:43:57;;;;;;;9.25;4.53;;;;;;;14.14;85.03;98510.36;1792149;80;25611;-51
2023/10/31 07:46:23;;;;;;;8.88;4.08;;;;;;;14.16;84.80;98497.94;1792054;80;26951;-51
2023/10/31 07:48:50;;;;;;;8.85;4.20;;;;;;;14.22;84.49;98507.91;1791948;80;25777;-51
2023/10/31 07:51:16;;;;;;;8.03;4.28;;;;;;;14.26;84.30;98506.57;1792008;80;25443;-48
2023/10/31 07:53:42;;;;;;;5.85;3.92;;;;;;;14.30;83.37;98512.80;1792007;80;25660;-50
2023/10/31 07:56:17;;;;;;;6.78;4.25;;;;;;;14.34;83.62;98513.63;1792107;80;25593;-51
2023/10/31 07:58:43;;;;;;;7.17;3.90;;;;;;;14.38;83.44;98516.55;1767824;81;27338;-50
2023/10/31 08:01:10;;;;;;;6.40;4.17;;;;;;;14.41;82.51;98526.50;1737187;82;25609;-51
2023/10/31 08:03:38;;;;;;;9.33;4.22;;;;;;;14.44;82.67;98525.72;1737337;82;25417;-49
2023/10/31 08:06:07;;;;;;;8.85;4.03;;;;;;;14.45;82.55;98526.70;1792022;80;26145;-48
2023/10/31 08:08:34;;;;;;;11.93;4.05;;;;;;;14.47;82.86;98547.53;1788347;80;25615;-50
2023/10/31 08:11:00;;;;;;;6.78;4.40;;;;;;;14.46;82.57;98526.16;1791988;80;27324;-50
2023/10/31 08:13:26;;;;;;;7.58;4.30;;;;;;;14.44;83.03;98527.08;1791989;80;25445;-49
2023/10/31 08:15:52;;;;;;;11.65;4.83;;;;;;;14.37;83.62;98509.58;1767795;81;25430;-50
2023/10/31 08:18:20;;;;;;;6.78;4.17;;;;;;;14.32;83.66;98486.81;1737235;82;25630;-53
2023/10/31 08:20:49;;;;;;;11.45;4.53;;;;;;;14.28;83.98;98485.98;1732700;82;25597;-50
2023/10/31 08:23:17;;;;;;;8.88;4.50;;;;;;;14.26;84.08;98472.58;1759396;81;27337;-50
2023/10/31 08:25:44;;;;;;;7.60;4.17;;;;;;;14.23;84.64;98480.12;1695375;83;25731;-52
2023/10/31 08:28:12;;;;;;;10.65;4.50;;;;;;;14.18;85.07;98467.66;1786228;80;25444;-49
2023/10/31 08:30:39;;;;;;;7.35;4.40;;;;;;;14.13;85.54;98485.12;1729110;83;25650;-48
2023/10/31 08:33:05;;;;;;;7.30;4.42;;;;;;;14.08;86.00;98469.72;1786227;80;25558;-52
2023/10/31 08:35:32;;;;;;;6.55;4.53;;;;;;;14.05;86.67;98480.78;1759393;81;28290;-49
2023/10/31 08:37:59;;;;;;;7.58;4.28;;;;;;;14.02;86.91;98469.29;1729069;83;25578;-51
2023/10/31 08:40:26;;;;;;;8.50;4.33;;;;;;;13.96;87.25;98459.91;1786207;80;25641;-50
2023/10/31 08:42:53;;;;;;;9.90;5.03;;;;;;;13.94;87.84;98462.23;1759351;81;25744;-49
2023/10/31 08:45:21;;;;;;;10.90;4.20;;;;;;;13.92;87.93;98466.67;1729291;83;25566;-49
2023/10/31 08:47:47;;;;;;;9.73;4.37;;;;;;;13.92;88.16;98450.38;1759480;81;27261;-49
2023/10/31 08:50:13;;;;;;;8.35;4.15;;;;;;;13.90;88.18;98447.26;1729205;83;25395;-49
2023/10/31 08:52:41;;;;;;;7.12;4.12;;;;;;;13.91;88.04;98455.63;1729182;83;25423;-51
2023/10/31 08:55:09;;;;;;;8.63;4.17;;;;;;;13.94;87.86;98466.30;1752344;81;25687;-48
2023/10/31 08:57:35;;;;;;;10.25;4.42;;;;;;;13.97;87.67;98487.30;1752418;81;25477;-49
2023/10/31 09:00:04;;;;;;;9.80;4.47;;;;;;;13.99;87.26;98469.45;1752392;81;27148;-50
2023/10/31 09:02:30;;;;;;;6.97;3.80;;;;;;;14.06;87.53;98503.30;1752330;81;25617;-49
2023/10/31 09:04:57;;;;;;;14.18;4.55;;;;;;;14.06;87.42;98489.70;1752365;81;25429;-50
2023/10/31 09:07:23;;;;;;;8.83;4.58;;;;;;;14.07;87.20;98477.69;1752349;81;26403;-50
2023/10/31 09:09:49;;;;;;;9.13;5.05;;;;;;;14.06;87.36;98493.78;1752450;81;25482;-50
2023/10/31 09:12:16;;;;;;;10.25;4.17;;;;;;;14.05;87.24;98496.31;1752416;81;27393;-50
2023/10/31 09:14:42;;;;;;;5.95;4.35;;;;;;;14.03;87.19;98481.73;1752455;81;25551;-50
2023/10/31 09:17:08;;;;;;;11.55;4.62;;;;;;;14.01;87.26;98483.47;1752571;81;25496;-50
2023/10/31 09:19:35;;;;;;;7.92;4.30;;;;;;;13.98;87.20;98478.78;1752498;81;25610;-48
2023/10/31 09:22:01;;;;;;;6.78;4.78;;;;;;;13.96;87.32;98491.97;1752506;81;25564;-51
2023/10/31 09:24:27;;;;;;;10.90;4.35;;;;;;;13.95;87.40;98476.80;1752522;81;26868;-49
2023/10/31 09:26:54;;;;;;;10.03;4.50;;;;;;;13.96;87.28;98481.66;1752455;81;25393;-50
2023/10/31 09:29:21;;;;;;;7.10;4.53;;;;;;;13.95;87.05;98466.52;1752496;81;25429;-50
2023/10/31 09:31:47;;;;;;;11.35;4.62;;;;;;;13.95;87.06;98463.80;1752491;81;25602;-49
2023/10/31 09:34:15;;;;;;;7.17;4.28;;;;;;;13.95;86.91;98470.59;1717651;81;25625;-50
2023/10/31 09:36:42;;;;;;;6.78;4.47;;;;;;;13.97;86.73;98473.72;1752497;81;27382;-51
2023/10/31 09:39:09;;;;;;;6.60;4.45;;;;;;;13.98;86.66;98471.98;1752449;81;25808;-50
2023/10/31 09:41:37;;;;;;;9.23;4.55;;;;;;;14.00;86.42;98463.45;1717533;81;25492;-49
2023/10/31 09:44:04;;;;;;;10.15;4.60;;;;;;;14.03;86.48;98464.62;1752473;81;25616;-52
2023/10/31 09:46:31;;;;;;;9.13;4.15;;;;;;;14.04;86.12;98474.35;1752531;81;25391;-49
2023/10/31 09:48:58;;;;;;;10.00;4.35;;;;;;;14.06;86.12;98453.01;1752542;81;27411;-49
2023/10/31 09:51:26;;;;;;;8.48;4.22;;;;;;;14.10;85.74;98464.70;1752400;81;25612;-49
2023/10/31 09:53:55;;;;;;;6.92;4.62;;;;;;;14.13;85.66;98464.73;1752515;81;25635;-49
2023/10/31 09:56:22;;;;;;;11.30;4.62;;;;;;;14.16;85.45;98460.46;1752522;81;25615;-49
2023/10/31 09:58:49;;;;;;;8.48;4.60;;;;;;;14.22;84.78;98468.48;1752515;81;25544;-48
2023/10/31 10:01:18;;;;;;;7.17;4.78;;;;;;;14.27;84.69;98464.05;1752526;81;27397;-48
2023/10/31 10:03:46;;;;;;;8.70;4.78;;;;;;;14.34;84.43;98468.75;1752479;81;25695;-49
2023/10/31 10:06:14;;;;;;;7.47;3.90;;;;;;;14.43;83.96;98472.50;1752595;81;25216;-50
2023/10/31 10:08:41;;;;;;;7.63;4.30;;;;;;;14.50;83.37;98461.07;1752732;81;25619;-48
2023/10/31 10:11:09;;;;;;;7.75;4.50;;;;;;;14.61;82.83;98458.45;1752555;81;25447;-49
2023/10/31 10:13:36;;;;;;;9.00;4.62;;;;;;;14.71;82.37;98454.21;1752554;81;27472;-51
2023/10/31 10:16:05;;;;;;;11.88;4.47;;;;;;;14.78;81.57;98454.83;1752455;81;25459;-53
2023/10/31 10:18:45;;;;;;;10.00;4.65;;;;;;;14.86;81.56;98460.51;1752749;81;25482;-53
2023/10/31 10:21:06;;;;;;;9.38;4.37;;;;;;;14.93;81.21;98453.17;1736080;81;26052;-53
2023/10/31 10:23:34;;;;;;;13.05;4.67;;;;;;;15.01;80.95;98465.44;1730188;82;25456;-51
2023/10/31 10:26:03;;;;;;;8.20;4.53;;;;;;;15.07;80.57;98470.14;1730087;83;27898;-51
2023/10/31 10:28:29;;;;;;;;;;;;;;;15.11;80.54;98463.34;1705845;83;25406;-50
2023/10/31 10:30:55;;;;;;;10.20;4.15;;;;;;;15.18;79.87;98474.25;1730047;83;25562;-50
2023/10/31 10:33:23;;;;;;;11.05;4.42;;;;;;;15.22;79.33;98465.53;1729999;83;26256;-51
2023/10/31 10:35:49;;;;;;;8.08;4.47;;;;;;;15.29;79.01;98460.09;1730033;83;25575;-50
2023/10/31 10:38:20;;;;;;;13.55;5.15;;;;;;;15.38;79.60;98463.81;1700257;83;27098;-51
2023/10/31 10:40:49;;;;;;;9.68;4.95;;;;;;;15.46;78.85;98461.30;1746630;81;25424;-49
2023/10/31 10:43:26;;;;;;;7.70;4.45;;;;;;;15.54;78.56;98485.83;1746816;82;30068;-50
2023/10/31 10:45:58;;;;;;;20.70;4.50;;;;;;;15.57;78.33;98474.94;1746671;82;25577;-53
2023/10/31 10:48:28;;;;;;;9.80;4.62;;;;;;;15.64;77.92;98480.98;1746229;82;25666;-50
2023/10/31 10:51:10;;;;;;;9.60;4.00;;;;;;;15.68;77.46;98478.47;1746533;81;27338;-52
2023/10/31 10:53:53;;;;;;;7.03;4.37;;;;;;;15.69;77.22;98475.16;1746294;82;25603;-49
2023/10/31 10:56:26;;;;;;;12.13;5.55;;;;;;;15.75;76.62;98466.00;1744933;82;25200;-49
2023/10/31 10:59:06;;;;;;;7.65;4.50;;;;;;;15.80;76.94;98474.63;1745964;82;26652;-48
2023/10/31 11:01:38;;;;;;;9.33;4.10;;;;;;;15.84;76.37;98467.22;1746678;82;25610;-49
2023/10/31 11:04:07;;;;;;;6.92;4.05;;;;;;;15.90;76.43;98475.01;1746615;81;27337;-50
2023/10/31 11:06:38;;;;;;;8.25;4.85;;;;;;;15.96;76.51;98470.14;1746657;82;25784;-49
2023/10/31 11:09:06;;;;;;;8.15;4.35;;;;;;;15.99;75.96;98469.37;1746711;82;25444;-49
2023/10/31 11:11:33;;;;;;;7.47;4.67;;;;;;;16.07;75.81;98471.50;1746535;81;25607;-48
2023/10/31 11:14:02;;;;;;;7.65;4.72;;;;;;;16.14;75.52;98480.27;1746548;82;25422;-48
2023/10/31 11:16:43;;;;;;;9.38;4.25;;;;;;;16.20;75.42;98475.98;1746751;82;28349;-52
2023/10/31 11:19:10;;;;;;;14.10;4.45;;;;;;;16.33;75.22;98498.97;1745331;82;25825;-52
2023/10/31 11:21:37;;;;;;;10.28;4.15;;;;;;;16.27;75.26;98489.61;1752781;81;25544;-51
2023/10/31 11:24:06;;;;;;;10.10;4.33;;;;;;;16.28;74.68;98489.02;1726843;81;25628;-49
2023/10/31 11:26:33;;;;;;;7.05;4.40;;;;;;;16.29;74.98;98494.68;1759458;81;25398;-51